Terminal Aerodrome Forecast
Issued by NWS North Platte, NE

Home | Current Version | Previous Version | Text Only | Print | Product List | Glossary On
Versions: 1 2 3 4 5 6 7 8 9 10 11 12 13 14 15 16 17 18 19 20 21 22 23
000
FTUS43 KLBF 030300 AAC
TAFLBF
TAF AMD
KLBF 030330Z 0304/0324 08007KT P6SM OVC200
     FM030415 30028G42KT P6SM VCTS OVC040CB
     FM030445 34034G47KT 2SM +TSRA BKN025CB
     FM030500 VRB21G31KT P6SM VCTS BKN040CB
     FM030600 15010KT P6SM BKN025 OVC050
     FM031200 08007KT P6SM OVC016
     FM031700 07010KT P6SM SCT016=

USA.gov is the U.S. government's official web portal to all federal, state and local government web resources and services.